Pagina principale
METAR-TAF:

METAR-TAF

Aeroporti :

Aeroporto di Pechino-Capitale

Pechino, Cina

latitudine: 39-56N, longitudine: 116-17E, altezza: 55 m

Osservazione

Il bollettino è stato emesso 33 minuti fa, alle 05:30 UTC
Vento 21 kt da ovest/nord-ovest con raffiche fino a 31 kt
Temperature 26°C
Umidità 11%
Pressione 1011 hPa
Visibilità 10 km o più
nessuna nube inferiore a 1500 m e nessun cumulonembo

METAR: ZBAA 210530Z 30011G16MPS CAVOK 26/M07 Q1011 WS RWY36L NOSIG

Ora: 14:03 (06:03 UTC)

Previsione

Il bollettino è stato emesso 2 ore e 33 minuti fa, alle 03:30 UTC
Previsione valida dal 21 alle 06 UTC al 22 alle 06 UTC
Vento 17 kt da nord-ovest con raffiche fino a 31 kt
Visibilità 10 km o più
nessuna nube inferiore a 1500 m e nessun cumulonembo
Evoluzione graduale
dal 21 alle 10 UTC al 21 alle 11 UTC
Vento 8 kt da nord-ovest

TAF: ZBAA 210330Z 2106/2206 31009G16MPS CAVOK TX26/2107Z TN12/2121Z BECMG 2110/2111 31004MPS

Osservazioni e previsioni meteorologiche di più di 4000 aeroporti (messaggi METAR e TAF).

Le stazioni disponibili sono rappresentate dai dischi gialli e rossi sulla carta.

Puntare il mouse per vedere il nome della stazione.

Clicca sopra per visualizzare le osservazioni e previsioni meteorologiche.

Per cambiare la mappa : fare clic sui pulsanti verdi con una croce nera per ingrandire, il pulsante verde con un trattino per diminuire, o sulla freccia verde per le mappe adiacenti.


METAR-TAF: